createdAt,value
2018-02-06T00:00:41.335Z,17.80
2018-02-06T00:03:47.107Z,18.00
2018-02-06T00:06:53.055Z,20.60
2018-02-06T00:09:58.421Z,18.60
2018-02-06T00:13:04.623Z,18.57
2018-02-06T00:16:10.867Z,17.50
2018-02-06T00:19:16.106Z,17.33
2018-02-06T00:22:21.315Z,17.97
2018-02-06T00:25:27.002Z,16.57
2018-02-06T00:28:32.520Z,20.70
2018-02-06T00:31:39.621Z,19.23
2018-02-06T00:34:45.167Z,20.03
2018-02-06T00:37:51.740Z,22.70
2018-02-06T00:40:56.629Z,17.50
2018-02-06T00:44:02.415Z,20.47
2018-02-06T00:47:08.214Z,17.77
2018-02-06T00:50:13.886Z,19.30
2018-02-06T00:53:19.112Z,17.50
2018-02-06T00:56:23.963Z,18.20
2018-02-06T00:59:29.195Z,18.77
2018-02-06T01:02:34.138Z,16.77
2018-02-06T01:05:39.107Z,18.93
2018-02-06T01:08:44.006Z,16.83
2018-02-06T01:11:49.771Z,18.27
2018-02-06T01:14:55.532Z,20.17
2018-02-06T01:18:00.840Z,16.90
2018-02-06T01:21:06.494Z,19.40
2018-02-06T01:24:12.208Z,20.50
2018-02-06T01:27:18.984Z,19.47
2018-02-06T01:30:25.136Z,17.03
2018-02-06T01:33:30.785Z,22.20
2018-02-06T01:36:35.995Z,21.20
2018-02-06T01:39:41.011Z,19.17
2018-02-06T01:42:46.392Z,17.27
2018-02-06T01:45:52.435Z,17.30
2018-02-06T01:48:56.804Z,18.03
2018-02-06T01:52:01.911Z,18.93
2018-02-06T01:55:07.458Z,16.97
2018-02-06T01:58:13.659Z,23.80
2018-02-06T02:01:20.040Z,20.53
2018-02-06T02:04:25.667Z,20.20
2018-02-06T02:07:31.505Z,20.53
2018-02-06T02:10:37.063Z,20.33
2018-02-06T02:13:43.137Z,20.50
2018-02-06T02:16:48.013Z,22.57
2018-02-06T02:19:53.966Z,21.13
2018-02-06T02:22:58.958Z,19.73
2018-02-06T02:26:05.397Z,19.33
2018-02-06T02:29:10.366Z,23.40
2018-02-06T02:32:15.978Z,20.20
2018-02-06T02:35:23.015Z,24.47
2018-02-06T02:38:29.622Z,18.83
2018-02-06T02:41:36.026Z,15.97
2018-02-06T04:38:33.513Z,22.10
2018-02-06T04:41:39.345Z,20.93
2018-02-06T04:44:45.726Z,22.67
2018-02-06T04:47:51.213Z,22.00
2018-02-06T04:50:57.705Z,22.90
2018-02-06T04:54:03.517Z,23.43
2018-02-06T04:57:08.681Z,24.43
2018-02-06T05:00:13.909Z,24.07
2018-02-06T05:03:19.332Z,21.10
2018-02-06T05:06:25.313Z,26.10
2018-02-06T05:09:30.917Z,19.90
2018-02-06T05:12:37.249Z,24.40
2018-02-06T05:15:43.913Z,22.63
2018-02-06T05:18:49.305Z,23.90
2018-02-06T05:21:54.371Z,23.87
2018-02-06T05:25:02.653Z,21.90
2018-02-06T05:28:07.976Z,22.63
2018-02-06T05:31:13.636Z,22.43
2018-02-06T05:34:19.968Z,23.40
2018-02-06T05:37:25.725Z,22.40
2018-02-06T05:40:31.961Z,21.90
2018-02-06T05:43:38.185Z,23.27
2018-02-06T05:46:43.464Z,21.30
2018-02-06T05:49:50.221Z,22.40
2018-02-06T05:52:56.821Z,25.37
2018-02-06T05:56:02.454Z,19.07
2018-02-06T05:59:08.177Z,24.77
2018-02-06T06:02:14.093Z,26.83
2018-02-06T06:05:19.736Z,23.77
2018-02-06T06:08:25.397Z,24.87
2018-02-06T06:11:30.465Z,24.17
2018-02-06T06:14:36.128Z,25.03
2018-02-06T06:17:41.793Z,24.67
2018-02-06T06:20:46.781Z,25.63
2018-02-06T06:23:52.548Z,30.20
2018-02-06T06:26:58.266Z,23.20
2018-02-06T06:30:03.533Z,24.20
2018-02-06T06:33:08.669Z,27.60
2018-02-06T06:36:13.993Z,28.37
2018-02-06T06:39:19.661Z,26.27
2018-02-06T06:42:26.042Z,26.60
2018-02-06T06:45:31.204Z,22.37
2018-02-06T06:48:37.376Z,25.63
2018-02-06T06:51:42.962Z,29.30
2018-02-06T06:54:48.557Z,24.03
2018-02-06T06:57:53.647Z,29.17
2018-02-06T07:00:59.117Z,26.50
2018-02-06T07:04:05.038Z,22.30
2018-02-06T07:07:10.000Z,24.90
2018-02-06T07:10:16.053Z,26.30
2018-02-06T07:13:22.017Z,23.70
2018-02-06T07:16:26.893Z,25.90
2018-02-06T07:19:32.693Z,24.57
2018-02-06T07:22:39.104Z,27.00
2018-02-06T07:25:44.617Z,27.10
2018-02-06T07:28:50.178Z,27.63
2018-02-06T07:31:55.226Z,26.50
2018-02-06T07:35:00.290Z,25.57
2018-02-06T07:38:06.077Z,30.20
2018-02-06T07:41:11.438Z,24.07
2018-02-06T07:44:17.671Z,27.03
2018-02-06T07:47:23.405Z,23.90
2018-02-06T07:50:29.077Z,24.37
2018-02-06T07:53:35.497Z,22.70
2018-02-06T07:56:41.813Z,26.20
2018-02-06T07:59:47.702Z,23.43
2018-02-06T08:02:53.460Z,22.30
2018-02-06T08:05:59.310Z,25.00
2018-02-06T08:09:05.706Z,23.20
2018-02-06T08:12:10.829Z,27.63
2018-02-06T08:15:16.551Z,25.53
2018-02-06T08:18:22.358Z,29.77
2018-02-06T08:21:28.417Z,25.43
2018-02-06T08:24:34.229Z,26.47
2018-02-06T08:27:39.274Z,30.07
2018-02-06T08:30:44.329Z,24.90
2018-02-06T08:33:50.030Z,22.33
2018-02-06T08:36:55.342Z,31.70
2018-02-06T08:40:01.005Z,28.07
2018-02-06T08:43:06.820Z,30.07
2018-02-06T08:46:12.034Z,31.57
2018-02-06T08:49:18.562Z,24.10
2018-02-06T08:52:24.310Z,23.80
2018-02-06T08:55:29.924Z,28.23
2018-02-06T08:58:35.693Z,28.97
2018-02-06T09:01:42.013Z,28.43
2018-02-06T09:04:47.465Z,24.90
2018-02-06T09:07:53.881Z,26.73
2018-02-06T09:10:58.759Z,28.30
2018-02-06T09:14:04.433Z,26.00
2018-02-06T09:17:10.537Z,26.70
2018-02-06T09:20:15.580Z,38.63
2018-02-06T09:23:21.475Z,28.30
2018-02-06T09:26:26.581Z,27.23
2018-02-06T09:29:32.728Z,28.03
2018-02-06T09:32:38.789Z,25.60
2018-02-06T09:35:45.133Z,29.57
2018-02-06T09:38:50.773Z,23.00
2018-02-06T09:41:56.325Z,24.40
2018-02-06T09:45:02.109Z,31.10
2018-02-06T09:48:07.256Z,25.10
2018-02-06T09:51:12.962Z,30.33
2018-02-06T09:54:18.034Z,25.90
2018-02-06T09:57:23.504Z,26.37
2018-02-06T10:00:29.281Z,25.57
2018-02-06T10:03:34.865Z,26.40
2018-02-06T10:06:40.645Z,22.43
2018-02-06T10:09:46.197Z,27.60
2018-02-06T10:12:51.005Z,27.83
2018-02-06T10:15:57.637Z,25.57
2018-02-06T10:19:02.973Z,26.47
2018-02-06T10:22:07.836Z,27.33
2018-02-06T10:25:13.317Z,25.43
2018-02-06T10:28:19.508Z,25.53
2018-02-06T10:31:25.301Z,30.10
2018-02-06T10:34:30.661Z,24.80
2018-02-06T10:37:36.661Z,25.20
2018-02-06T10:40:41.952Z,31.00
2018-02-06T10:43:47.108Z,26.43
2018-02-06T10:46:52.604Z,30.30
2018-02-06T10:49:58.276Z,29.13
2018-02-06T10:53:03.870Z,28.90
2018-02-06T10:56:09.362Z,30.23
2018-02-06T10:59:15.220Z,26.53
2018-02-06T11:02:20.244Z,30.07
2018-02-06T11:05:25.652Z,26.63
2018-02-06T11:08:31.968Z,26.50
2018-02-06T11:11:37.684Z,30.10
2018-02-06T11:14:42.501Z,26.70
2018-02-06T11:17:48.960Z,27.30
2018-02-06T11:20:54.372Z,27.23
2018-02-06T11:23:59.844Z,28.30
2018-02-06T11:27:05.152Z,29.37
2018-02-06T11:30:10.760Z,27.10
2018-02-06T11:33:16.480Z,32.83
2018-02-06T11:36:22.864Z,26.70
2018-02-06T11:39:27.685Z,28.47
2018-02-06T11:42:33.017Z,31.63
2018-02-06T11:45:38.637Z,32.37
2018-02-06T11:48:44.592Z,31.50
2018-02-06T11:51:49.465Z,28.00
2018-02-06T11:54:54.753Z,29.00
2018-02-06T11:58:00.365Z,31.63
2018-02-06T12:01:05.508Z,35.20
2018-02-06T12:04:10.796Z,31.73
2018-02-06T12:07:15.617Z,32.90
2018-02-06T12:10:21.373Z,27.50
2018-02-06T12:13:26.608Z,29.73
2018-02-06T12:16:32.120Z,28.77
2018-02-06T12:19:38.036Z,24.67
2018-02-06T12:22:43.864Z,28.03
2018-02-06T12:25:49.473Z,26.87
2018-02-06T12:28:56.036Z,30.50
2018-02-06T12:32:01.548Z,27.87
2018-02-06T12:35:07.918Z,29.60
2018-02-06T12:38:13.671Z,29.03
2018-02-06T12:41:18.645Z,37.60
2018-02-06T12:44:24.073Z,29.10
2018-02-06T12:47:28.912Z,37.27
2018-02-06T12:50:34.896Z,32.00
2018-02-06T12:53:41.328Z,28.47
2018-02-06T12:56:46.537Z,28.70
2018-02-06T12:59:52.765Z,31.43
2018-02-06T13:02:58.456Z,28.03
2018-02-06T13:06:03.596Z,33.90
2018-02-06T13:09:09.688Z,30.77
2018-02-06T13:12:16.092Z,43.43
2018-02-06T13:15:22.185Z,30.03
2018-02-06T13:18:27.605Z,28.70
2018-02-06T13:21:33.825Z,28.47
2018-02-06T13:24:40.044Z,28.83
2018-02-06T13:27:44.972Z,29.70
2018-02-06T13:30:50.907Z,30.80
2018-02-06T13:33:55.916Z,28.30
2018-02-06T13:37:01.436Z,32.53
2018-02-06T13:40:06.685Z,30.10
2018-02-06T13:43:12.521Z,32.00
2018-02-06T13:46:19.200Z,31.07
2018-02-06T13:49:24.773Z,29.47
2018-02-06T13:52:30.884Z,33.97
2018-02-06T13:55:36.322Z,32.10
2018-02-06T13:58:41.920Z,31.30
2018-02-06T14:01:47.578Z,35.40
2018-02-06T14:04:53.289Z,29.83
2018-02-06T14:07:58.134Z,34.57
2018-02-06T14:11:04.252Z,32.40
2018-02-06T14:14:10.233Z,32.00
2018-02-06T14:17:15.173Z,32.77
2018-02-06T14:20:20.785Z,30.10
2018-02-06T14:23:26.265Z,34.00
2018-02-06T14:26:32.245Z,27.60
2018-02-06T14:29:37.958Z,33.33
2018-02-06T14:32:43.297Z,33.20
2018-02-06T14:35:48.997Z,37.20
2018-02-06T14:38:54.570Z,32.87
2018-02-06T14:42:00.937Z,37.67
2018-02-06T14:45:06.853Z,31.40
2018-02-06T14:48:11.989Z,35.50
2018-02-06T14:51:16.805Z,33.50
2018-02-06T14:54:22.589Z,37.13
2018-02-06T14:57:27.661Z,29.60
2018-02-06T15:00:33.953Z,30.03
2018-02-06T15:03:38.941Z,32.47
2018-02-06T15:06:45.026Z,34.07
2018-02-06T15:09:51.547Z,32.10
2018-02-06T15:12:57.208Z,35.80
2018-02-06T15:16:02.117Z,35.60
2018-02-06T15:19:08.228Z,34.73
2018-02-06T15:22:13.993Z,34.00
2018-02-06T15:25:19.433Z,35.60
2018-02-06T15:28:25.721Z,39.00
2018-02-06T15:31:31.653Z,32.43
2018-02-06T15:34:37.898Z,34.07
2018-02-06T15:37:44.406Z,35.77
2018-02-06T15:40:50.173Z,34.13
2018-02-06T15:43:56.014Z,36.03
2018-02-06T15:47:01.462Z,36.70
2018-02-06T15:50:06.417Z,35.33
2018-02-06T15:53:11.974Z,35.10
2018-02-06T15:56:17.045Z,34.63
2018-02-06T15:59:22.083Z,34.40
2018-02-06T16:02:28.185Z,38.10
2018-02-06T16:05:33.810Z,34.60
2018-02-06T16:08:39.838Z,34.40
2018-02-06T16:11:44.751Z,33.00
2018-02-06T16:14:51.961Z,33.00
2018-02-06T16:17:58.289Z,34.70
2018-02-06T16:21:03.906Z,39.87
2018-02-06T16:24:08.845Z,38.77
2018-02-06T16:27:13.853Z,37.40
2018-02-06T16:30:19.821Z,35.87
2018-02-06T16:33:25.397Z,30.73
2018-02-06T16:36:31.273Z,38.43
2018-02-06T16:39:37.119Z,35.20
2018-02-06T16:42:42.281Z,38.33
2018-02-06T16:45:47.641Z,35.43
2018-02-06T16:48:53.125Z,35.93
2018-02-06T16:51:58.589Z,36.30
2018-02-06T16:55:04.033Z,31.33
2018-02-06T16:58:09.640Z,33.70
2018-02-06T17:01:15.142Z,32.47
2018-02-06T17:04:21.093Z,35.43
2018-02-06T17:07:26.508Z,34.70
2018-02-06T17:10:31.429Z,36.60
2018-02-06T17:13:37.000Z,36.30
2018-02-06T17:16:42.240Z,40.07
2018-02-06T17:19:47.717Z,37.73
2018-02-06T17:22:53.261Z,35.00
2018-02-06T17:25:58.553Z,39.73
2018-02-06T17:29:04.002Z,36.57
2018-02-06T17:32:10.298Z,35.77
2018-02-06T17:35:16.773Z,36.40
2018-02-06T17:38:22.197Z,38.17
2018-02-06T17:41:27.050Z,36.20
2018-02-06T17:44:32.965Z,40.90
2018-02-06T17:47:38.554Z,42.47
2018-02-06T17:50:44.238Z,39.40
2018-02-06T17:53:50.476Z,43.50
2018-02-06T17:56:56.228Z,35.20
2018-02-06T18:00:01.526Z,44.30
2018-02-06T18:03:07.083Z,41.40
2018-02-06T18:06:12.449Z,48.57
2018-02-06T18:09:18.210Z,40.37
2018-02-06T18:12:23.155Z,36.87
2018-02-06T18:15:28.791Z,37.47
2018-02-06T18:18:34.965Z,39.90
2018-02-06T18:21:39.721Z,38.63
2018-02-06T18:24:44.565Z,46.27
2018-02-06T18:27:50.051Z,41.33
2018-02-06T18:30:55.190Z,38.67
2018-02-06T18:34:00.838Z,41.10
2018-02-06T18:37:05.933Z,39.97
2018-02-06T18:40:11.506Z,44.87
2018-02-06T18:43:17.158Z,47.60
2018-02-06T18:46:23.175Z,39.87
2018-02-06T18:49:29.024Z,43.43
2018-02-06T18:52:34.765Z,42.40
2018-02-06T18:55:40.253Z,44.40
2018-02-06T18:58:45.831Z,41.87
2018-02-06T19:01:51.497Z,43.97
2018-02-06T19:04:56.678Z,39.47
2018-02-06T19:08:02.110Z,40.90
2018-02-06T19:11:07.601Z,44.70
2018-02-06T19:14:16.340Z,41.63
2018-02-06T19:17:22.770Z,41.23
2018-02-06T19:20:29.076Z,44.63
2018-02-06T19:23:34.753Z,50.17
2018-02-06T19:26:40.718Z,41.90
2018-02-06T19:29:46.513Z,40.20
2018-02-06T19:32:52.275Z,44.37
2018-02-06T19:35:58.537Z,52.83
2018-02-06T19:39:03.661Z,42.77
2018-02-06T19:42:08.917Z,43.00
2018-02-06T19:45:14.598Z,44.80
2018-02-06T19:48:19.821Z,40.50
2018-02-06T19:51:26.189Z,41.90
2018-02-06T19:54:31.401Z,43.50
2018-02-06T19:57:37.253Z,44.33
2018-02-06T20:00:47.477Z,41.40
2018-02-06T20:03:53.633Z,48.07
2018-02-06T20:06:59.032Z,41.10
2018-02-06T20:10:05.373Z,38.73
2018-02-06T20:13:10.989Z,40.90
2018-02-06T20:16:16.680Z,44.30
2018-02-06T20:19:22.363Z,40.47
2018-02-06T20:22:29.002Z,44.50
2018-02-06T20:25:33.845Z,43.03
2018-02-06T20:28:38.678Z,43.43
2018-02-06T20:31:44.006Z,50.13
2018-02-06T20:34:49.645Z,41.60
2018-02-06T20:37:54.570Z,49.40
2018-02-06T20:41:00.889Z,42.60
2018-02-06T20:44:06.148Z,42.97
2018-02-06T20:47:11.253Z,40.67
2018-02-06T20:50:16.078Z,42.50
2018-02-06T20:53:24.301Z,44.23
2018-02-06T20:56:30.772Z,42.77
2018-02-06T20:59:35.531Z,43.60
2018-02-06T21:02:41.547Z,43.80
2018-02-06T21:05:46.700Z,48.10
2018-02-06T21:08:52.280Z,49.80
2018-02-06T21:11:57.642Z,44.47
2018-02-06T21:15:02.726Z,42.03
2018-02-06T21:18:14.318Z,42.07
2018-02-06T21:21:20.332Z,42.73
2018-02-06T21:24:25.913Z,44.20
2018-02-06T21:27:31.114Z,40.57
2018-02-06T21:30:36.354Z,55.03
2018-02-06T21:33:42.667Z,42.27
2018-02-06T21:36:48.357Z,48.17
2018-02-06T21:39:53.961Z,45.63
2018-02-06T21:43:03.253Z,47.50
2018-02-06T21:46:09.993Z,45.03
2018-02-06T21:49:16.754Z,48.90
2018-02-06T21:52:22.393Z,44.20
2018-02-06T21:55:27.909Z,43.73
2018-02-06T21:58:33.470Z,46.80
2018-02-06T22:01:46.753Z,41.37
2018-02-06T22:04:53.105Z,41.53
2018-02-06T22:07:59.513Z,42.50
2018-02-06T22:11:05.375Z,42.03
2018-02-06T22:14:10.349Z,46.30
2018-02-06T22:17:15.834Z,44.50
2018-02-06T22:20:21.613Z,39.17
2018-02-06T22:23:26.909Z,48.30
2018-02-06T22:26:33.077Z,43.57
2018-02-06T22:29:42.566Z,44.80
2018-02-06T22:32:48.213Z,39.17
2018-02-06T22:35:53.805Z,44.67
2018-02-06T22:39:00.611Z,43.30
2018-02-06T22:42:06.141Z,43.47
2018-02-06T22:45:11.614Z,39.63
2018-02-06T22:48:16.985Z,43.57
2018-02-06T22:51:23.425Z,44.00
2018-02-06T22:54:28.873Z,38.07
2018-02-06T22:57:34.369Z,44.37
2018-02-06T23:00:45.757Z,43.03
2018-02-06T23:03:51.037Z,38.40
2018-02-06T23:06:56.250Z,46.20
2018-02-06T23:10:01.590Z,46.90
2018-02-06T23:13:07.074Z,42.30
2018-02-06T23:16:12.837Z,38.10
2018-02-06T23:19:18.506Z,46.77
2018-02-06T23:22:24.738Z,41.93
2018-02-06T23:25:29.712Z,37.53
2018-02-06T23:32:04.667Z,36.77
2018-02-06T23:35:11.110Z,43.57
2018-02-06T23:38:17.711Z,37.77
2018-02-06T23:41:23.782Z,40.00
2018-02-06T23:44:30.794Z,35.03
2018-02-06T23:47:36.871Z,38.00
2018-02-06T23:50:41.811Z,40.00
2018-02-06T23:53:47.387Z,36.60
2018-02-06T23:56:52.912Z,39.07
2018-02-06T23:59:58.650Z,40.77
